Time;durP1;ratioP1;P1;durP2;ratioP2;P2;SDS_P1;SDS_P2;PMS_P1;PMS_P2;Temp;Humidity;BMP_temperature;BMP_pressure;BME280_temperature;BME280_humidity;BME280_pressure;Samples;Min_cycle;Max_cycle;Signal;HPM_P1;HPM_P2
2023/04/08 00:01:14;;;;;;;6.43;4.53;;;7.20;99.90;;;;;;5033482;28;20022;-49
2023/04/08 00:03:40;;;;;;;3.88;2.83;;;7.00;99.90;;;;;;5033356;28;20127;-49
2023/04/08 00:06:07;;;;;;;5.00;4.15;;;6.80;99.90;;;;;;5032333;28;20133;-50
2023/04/08 00:08:32;;;;;;;7.35;3.40;;;6.90;99.90;;;;;;5033039;28;20094;-50
2023/04/08 00:10:58;;;;;;;6.13;3.88;;;6.90;99.90;;;;;;5033287;28;20112;-50
2023/04/08 00:13:25;;;;;;;7.38;4.43;;;6.90;99.90;;;;;;5033108;28;20030;-51
2023/04/08 00:15:51;;;;;;;5.38;4.88;;;6.80;99.90;;;;;;5033242;28;20354;-53
2023/04/08 00:18:16;;;;;;;4.82;4.00;;;6.80;99.90;;;;;;5033272;28;20036;-52
2023/04/08 00:20:43;;;;;;;4.85;3.60;;;6.60;99.90;;;;;;5033043;28;20025;-53
2023/04/08 00:23:09;;;;;;;4.75;3.10;;;6.50;99.90;;;;;;5031347;28;20030;-50
2023/04/08 00:25:35;;;;;;;5.53;3.40;;;6.40;99.90;;;;;;5032872;28;20056;-51
2023/04/08 00:28:00;;;;;;;4.53;2.92;;;6.30;99.90;;;;;;5033036;28;20037;-52
2023/04/08 00:30:27;;;;;;;3.63;2.35;;;;;;;;;;4997890;28;20157;-50
2023/04/08 00:32:53;;;;;;;4.97;3.88;;;6.20;99.90;;;;;;5033194;28;20395;-48
2023/04/08 00:35:19;;;;;;;2.85;2.65;;;6.20;99.90;;;;;;5032778;28;20044;-49
2023/04/08 00:37:44;;;;;;;3.90;3.60;;;6.20;99.90;;;;;;5033320;28;20033;-49
2023/04/08 00:40:11;;;;;;;3.90;3.28;;;6.30;99.90;;;;;;4998181;28;20037;-52
2023/04/08 00:42:37;;;;;;;8.52;4.57;;;6.40;99.90;;;;;;5033093;28;20362;-51
2023/04/08 00:45:04;;;;;;;9.82;4.47;;;6.40;99.90;;;;;;5031978;28;20064;-50
2023/04/08 00:47:30;;;;;;;6.65;3.45;;;6.50;99.90;;;;;;5030881;28;20048;-50
2023/04/08 00:49:55;;;;;;;5.43;4.70;;;6.50;99.90;;;;;;5032634;28;20136;-52
2023/04/08 00:52:21;;;;;;;6.85;4.68;;;6.60;99.90;;;;;;5032860;28;20072;-48
2023/04/08 00:54:47;;;;;;;4.70;4.07;;;;;;;;;;5030839;28;20038;-49
2023/04/08 00:57:13;;;;;;;8.82;4.47;;;6.90;99.90;;;;;;5033984;28;20026;-51
2023/04/08 00:59:40;;;;;;;7.53;4.28;;;;;;;;;;5018001;28;20406;-48
2023/04/08 01:02:31;;;;;;;6.22;4.82;;;7.20;99.90;;;;;;5037097;28;20040;-50
2023/04/08 01:05:07;;;;;;;8.27;5.40;;;7.30;99.90;;;;;;5034275;28;20578;-51
2023/04/08 01:07:43;;;;;;;7.25;4.43;;;;;;;;;;4985206;28;20048;-52
2023/04/08 01:10:19;;;;;;;5.32;4.13;;;;;;;;;;5034350;28;20068;-49
2023/04/08 01:12:50;;;;;;;6.25;3.97;;;;;;;;;;5017555;28;20034;-49
2023/04/08 01:15:16;;;;;;;5.95;4.57;;;7.90;99.90;;;;;;5034266;28;20029;-49
2023/04/08 01:17:43;;;;;;;9.10;5.35;;;7.80;99.90;;;;;;5034155;28;20069;-48
2023/04/08 01:20:10;;;;;;;12.60;6.60;;;7.90;99.90;;;;;;5017644;28;20045;-51
2023/04/08 01:22:53;;;;;;;7.97;5.32;;;8.00;99.90;;;;;;4985334;28;20052;-52
2023/04/08 01:25:21;;;;;;;6.50;5.28;;;;;;;;;;5033987;28;20128;-52
2023/04/08 01:27:48;;;;;;;8.77;4.63;;;;;;;;;;5033967;28;20033;-49
2023/04/08 01:30:15;;;;;;;6.00;4.22;;;;;;;;;;5033843;28;20536;-52
2023/04/08 01:32:43;;;;;;;6.18;4.70;;;;;;;;;;5033778;28;20532;-49
2023/04/08 01:35:10;;;;;;;10.05;4.50;;;8.60;99.90;;;;;;5033918;28;20049;-48
2023/04/08 01:37:37;;;;;;;7.85;4.55;;;8.50;99.90;;;;;;4965096;28;20045;-48
2023/04/08 01:40:06;;;;;;;6.03;4.03;;;8.50;99.90;;;;;;5013972;28;20045;-48
2023/04/08 01:42:32;;;;;;;5.65;3.90;;;8.60;99.90;;;;;;5005815;28;20038;-48
2023/04/08 01:44:59;;;;;;;7.93;5.75;;;8.60;99.90;;;;;;5033546;28;20037;-52
2023/04/08 01:47:27;;;;;;;8.50;5.40;;;8.50;99.90;;;;;;5033553;28;20445;-48
2023/04/08 01:49:53;;;;;;;8.43;5.38;;;8.50;99.90;;;;;;5033442;28;20049;-48
2023/04/08 01:52:24;;;;;;;14.95;6.10;;;8.60;99.90;;;;;;5033539;28;20041;-52
2023/04/08 01:54:50;;;;;;;7.75;5.55;;;8.60;99.90;;;;;;5033273;28;20061;-50
2023/04/08 01:57:30;;;;;;;13.05;5.65;;;8.60;99.90;;;;;;5033679;28;20072;-50
2023/04/08 02:00:00;;;;;;;12.18;6.25;;;8.60;99.90;;;;;;5033486;28;20037;-52
2023/04/08 02:02:27;;;;;;;6.35;5.10;;;8.40;99.90;;;;;;5016854;28;20077;-52
2023/04/08 02:04:53;;;;;;;9.38;5.88;;;8.00;99.90;;;;;;5033271;28;20083;-51
2023/04/08 02:07:19;;;;;;;11.40;6.80;;;7.80;99.90;;;;;;5033427;28;20030;-52
2023/04/08 02:09:45;;;;;;;7.57;5.20;;;7.80;99.90;;;;;;5034548;28;20432;-51
2023/04/08 02:12:11;;;;;;;8.60;4.70;;;8.00;99.90;;;;;;5033550;28;20116;-48
2023/04/08 02:14:37;;;;;;;9.07;5.40;;;8.20;99.90;;;;;;5035632;28;20500;-50
2023/04/08 02:17:36;;;;;;;7.13;4.72;;;8.30;99.90;;;;;;5035193;28;20041;-51
2023/04/08 02:20:10;;;;;;;11.15;6.25;;;8.40;99.90;;;;;;5032915;28;20558;-52
2023/04/08 02:22:43;;;;;;;6.85;4.60;;;8.30;99.90;;;;;;5033151;28;20111;-49
2023/04/08 02:25:13;;;;;;;6.80;5.05;;;8.10;99.90;;;;;;5032803;28;20046;-48
2023/04/08 02:27:40;;;;;;;7.85;5.03;;;8.00;99.90;;;;;;5032987;28;20040;-51
2023/04/08 02:30:07;;;;;;;11.60;5.25;;;7.80;99.90;;;;;;5032656;28;20072;-51
2023/04/08 02:32:35;;;;;;;9.70;5.20;;;7.70;99.90;;;;;;4983613;28;20052;-50
2023/04/08 02:35:02;;;;;;;6.35;4.18;;;7.50;99.90;;;;;;5016052;28;20409;-49
2023/04/08 02:37:29;;;;;;;6.32;4.95;;;7.50;99.90;;;;;;5032784;28;20509;-49
2023/04/08 02:39:55;;;;;;;8.18;5.82;;;7.40;99.90;;;;;;5032682;28;20393;-50
2023/04/08 02:42:21;;;;;;;5.50;4.20;;;7.30;99.90;;;;;;5032686;28;20041;-52
2023/04/08 02:44:47;;;;;;;8.13;4.10;;;;;;;;;;5032657;28;20471;-52
2023/04/08 02:47:13;;;;;;;5.32;4.65;;;;;;;;;;5015922;28;20048;-50
2023/04/08 02:49:38;;;;;;;8.02;4.63;;;7.20;99.90;;;;;;5032139;28;20517;-51
2023/04/08 02:52:04;;;;;;;5.72;4.13;;;7.00;99.90;;;;;;5032342;28;20029;-50
2023/04/08 02:54:30;;;;;;;6.18;4.50;;;7.10;99.90;;;;;;4983346;28;20050;-50
2023/04/08 02:56:56;;;;;;;5.22;3.33;;;7.40;99.90;;;;;;5033185;28;20108;-49
2023/04/08 02:59:22;;;;;;;7.05;5.18;;;7.40;99.90;;;;;;5034395;28;20040;-48
2023/04/08 03:01:48;;;;;;;5.63;3.75;;;;;;;;;;5032421;28;20128;-52
2023/04/08 03:04:14;;;;;;;7.32;4.63;;;;;;;;;;5034242;28;20045;-49
2023/04/08 03:06:40;;;;;;;6.13;5.07;;;;;;;;;;5034813;28;20037;-52
2023/04/08 03:09:06;;;;;;;5.38;4.35;;;;;;;;;;5032170;28;20052;-50
2023/04/08 03:11:32;;;;;;;7.35;4.35;;;8.10;99.90;;;;;;5034366;28;20400;-49
2023/04/08 03:13:58;;;;;;;7.38;4.63;;;8.30;99.90;;;;;;5034144;28;20041;-53
2023/04/08 03:16:24;;;;;;;7.22;5.07;;;8.30;99.90;;;;;;5015711;28;20064;-48
2023/04/08 03:18:50;;;;;;;4.68;3.78;;;8.30;99.90;;;;;;5032107;28;20515;-52
2023/04/08 03:21:16;;;;;;;5.95;4.07;;;8.30;99.90;;;;;;5033445;28;20444;-52
2023/04/08 03:23:42;;;;;;;6.90;5.20;;;8.30;99.90;;;;;;5033809;28;20029;-51
2023/04/08 03:26:08;;;;;;;7.30;4.05;;;8.30;99.90;;;;;;5034264;28;20079;-51
2023/04/08 03:28:33;;;;;;;5.93;5.05;;;8.30;99.90;;;;;;5033942;28;20068;-48
2023/04/08 03:31:02;;;;;;;5.82;3.75;;;8.30;99.90;;;;;;5033868;28;20044;-50
2023/04/08 03:33:28;;;;;;;8.15;5.00;;;8.40;99.90;;;;;;5034127;28;20025;-51
2023/04/08 03:35:54;;;;;;;7.43;3.90;;;8.50;99.90;;;;;;5033836;28;20179;-52
2023/04/08 03:38:20;;;;;;;5.82;4.03;;;8.50;99.90;;;;;;5033762;28;20033;-49
2023/04/08 03:40:46;;;;;;;6.07;4.18;;;8.50;99.90;;;;;;5033859;28;20030;-50
2023/04/08 03:43:13;;;;;;;5.95;4.15;;;8.40;99.90;;;;;;5035193;28;20048;-49
2023/04/08 03:45:39;;;;;;;7.57;4.93;;;8.40;99.90;;;;;;5014415;28;20053;-53
2023/04/08 03:48:05;;;;;;;4.53;3.83;;;8.40;99.90;;;;;;5014043;28;20061;-50
2023/04/08 03:50:31;;;;;;;5.95;4.03;;;8.30;99.90;;;;;;5014129;28;20100;-51
2023/04/08 03:52:57;;;;;;;9.88;4.95;;;8.30;99.90;;;;;;5014428;28;20517;-51
2023/04/08 03:55:23;;;;;;;7.15;5.30;;;8.40;99.90;;;;;;5014086;28;20037;-50
2023/04/08 03:57:48;;;;;;;11.82;5.63;;;8.50;99.90;;;;;;5013833;28;20045;-50
2023/04/08 04:00:14;;;;;;;6.88;4.88;;;8.40;99.90;;;;;;5013869;28;20100;-59
2023/04/08 04:02:40;;;;;;;5.45;4.85;;;8.40;99.90;;;;;;5012056;28;20044;-50
2023/04/08 04:05:07;;;;;;;5.38;4.50;;;8.40;99.90;;;;;;5011585;28;20125;-52
2023/04/08 04:07:32;;;;;;;5.85;4.45;;;8.40;99.90;;;;;;5011457;28;20030;-51
2023/04/08 04:09:58;;;;;;;7.28;4.45;;;8.40;99.90;;;;;;5011388;28;20260;-51
2023/04/08 04:12:24;;;;;;;9.88;6.65;;;8.50;99.90;;;;;;5011432;28;20049;-52
2023/04/08 04:14:50;;;;;;;10.02;6.00;;;8.40;99.90;;;;;;5011307;28;20041;-50
2023/04/08 04:17:15;;;;;;;8.52;5.55;;;8.30;99.90;;;;;;5027972;28;20045;-51
2023/04/08 04:19:41;;;;;;;6.10;4.55;;;8.10;99.90;;;;;;5031333;28;20037;-51
2023/04/08 04:22:07;;;;;;;7.28;5.72;;;8.10;99.90;;;;;;5047957;28;20045;-49
2023/04/08 04:24:33;;;;;;;8.73;5.05;;;8.30;99.90;;;;;;5033173;28;20054;-50
2023/04/08 04:26:58;;;;;;;8.55;4.93;;;8.30;99.90;;;;;;5033004;28;20114;-49
2023/04/08 04:29:24;;;;;;;5.60;4.00;;;8.30;99.90;;;;;;5031374;28;20175;-51
2023/04/08 04:31:50;;;;;;;5.95;4.35;;;8.40;99.90;;;;;;5028906;28;20033;-49
2023/04/08 04:34:16;;;;;;;6.97;4.55;;;8.20;99.90;;;;;;5028762;28;20029;-52
2023/04/08 04:36:42;;;;;;;6.63;4.22;;;8.00;99.90;;;;;;5030214;28;20442;-52
2023/04/08 04:39:08;;;;;;;7.75;4.90;;;8.10;99.90;;;;;;5030400;28;20040;-50
2023/04/08 04:41:37;;;;;;;7.68;4.65;;;8.30;99.90;;;;;;5033871;28;20107;-53
2023/04/08 04:44:03;;;;;;;7.45;4.65;;;8.30;99.90;;;;;;5045248;28;20126;-51
2023/04/08 04:46:29;;;;;;;12.65;6.65;;;8.30;99.90;;;;;;5028609;28;20049;-52
2023/04/08 04:48:55;;;;;;;7.47;4.70;;;8.40;99.90;;;;;;5030253;28;20552;-51
2023/04/08 04:51:21;;;;;;;6.90;6.18;;;8.50;99.90;;;;;;5028131;28;20026;-52
2023/04/08 04:53:48;;;;;;;8.65;6.32;;;8.40;99.90;;;;;;5029079;28;20025;-52
2023/04/08 04:56:14;;;;;;;10.13;6.40;;;8.40;99.90;;;;;;5030162;28;20084;-51
2023/04/08 04:58:40;;;;;;;9.73;7.05;;;8.50;99.90;;;;;;5028007;28;20033;-52
2023/04/08 05:01:06;;;;;;;9.23;5.35;;;8.50;99.90;;;;;;5029134;28;20409;-50
2023/04/08 05:03:32;;;;;;;9.98;6.05;;;8.50;99.90;;;;;;5029787;28;20025;-51
2023/04/08 05:05:58;;;;;;;8.95;6.28;;;8.30;99.90;;;;;;5028068;28;20492;-49
2023/04/08 05:08:23;;;;;;;18.58;7.50;;;8.40;99.90;;;;;;5029409;28;20669;-48
2023/04/08 05:10:49;;;;;;;13.35;6.97;;;8.40;99.90;;;;;;5022752;28;20049;-50
2023/04/08 05:13:16;;;;;;;8.10;6.70;;;8.40;99.90;;;;;;5026197;28;20041;-50
2023/04/08 05:15:42;;;;;;;9.35;5.13;;;8.40;99.90;;;;;;5039299;28;20036;-50
2023/04/08 05:18:08;;;;;;;11.48;5.60;;;8.30;99.90;;;;;;5039261;28;20132;-50
2023/04/08 05:20:33;;;;;;;6.75;5.22;;;8.30;99.90;;;;;;5039178;28;20072;-51
2023/04/08 05:22:59;;;;;;;9.52;6.72;;;8.00;99.90;;;;;;5037260;28;20037;-49
2023/04/08 05:25:25;;;;;;;8.13;5.18;;;7.90;99.90;;;;;;5020302;28;20045;-49
2023/04/08 05:27:51;;;;;;;9.15;6.38;;;8.00;99.90;;;;;;5038848;28;20124;-49
2023/04/08 05:30:17;;;;;;;7.40;5.97;;;8.30;99.90;;;;;;5038916;28;20037;-52
2023/04/08 05:32:43;;;;;;;9.57;7.32;;;8.20;99.90;;;;;;5039010;28;20037;-50
2023/04/08 05:35:09;;;;;;;15.15;8.85;;;8.50;99.90;;;;;;5054170;28;20591;-51
2023/04/08 05:37:35;;;;;;;10.10;7.07;;;8.70;99.90;;;;;;5035717;28;20030;-50
2023/04/08 05:40:01;;;;;;;11.38;7.43;;;8.80;99.90;;;;;;5011131;28;20037;-52
2023/04/08 05:42:26;;;;;;;14.50;6.25;;;9.00;99.90;;;;;;5031031;28;20025;-51
2023/04/08 05:44:52;;;;;;;7.93;5.85;;;9.00;99.90;;;;;;5029245;28;20061;-48
2023/04/08 05:47:18;;;;;;;12.15;7.70;;;9.20;99.90;;;;;;5044319;28;20036;-49
2023/04/08 05:49:44;;;;;;;17.85;8.75;;;9.10;99.90;;;;;;5028607;28;20056;-48
2023/04/08 05:52:10;;;;;;;11.38;7.47;;;8.90;99.90;;;;;;5042399;28;20051;-52
2023/04/08 05:54:36;;;;;;;10.75;6.43;;;8.90;99.90;;;;;;5046445;28;20036;-52
2023/04/08 05:57:01;;;;;;;6.00;5.03;;;8.90;99.90;;;;;;5047246;28;20080;-52
2023/04/08 05:59:27;;;;;;;9.30;6.47;;;8.50;99.90;;;;;;5042631;28;20075;-50
2023/04/08 06:01:54;;;;;;;9.02;6.70;;;8.40;99.90;;;;;;5043347;28;20049;-50
2023/04/08 06:04:20;;;;;;;8.23;6.03;;;8.50;99.90;;;;;;5053403;28;20116;-49
2023/04/08 06:06:45;;;;;;;8.43;5.80;;;8.50;99.90;;;;;;5053140;28;20036;-51
2023/04/08 06:09:11;;;;;;;11.25;7.90;;;8.80;99.90;;;;;;5086810;28;20374;-52
2023/04/08 06:11:37;;;;;;;10.82;6.82;;;9.10;99.90;;;;;;5053326;28;20041;-51
2023/04/08 06:14:02;;;;;;;10.40;6.35;;;9.10;99.90;;;;;;5052993;28;20095;-52
2023/04/08 06:16:28;;;;;;;9.57;7.03;;;;;;;;;;5053140;28;20090;-50
2023/04/08 06:18:55;;;;;;;10.02;6.68;;;;;;;;;;5038886;28;20461;-48
2023/04/08 06:21:21;;;;;;;11.75;7.30;;;;;;;;;;5035247;28;20401;-50
2023/04/08 06:23:46;;;;;;;10.18;6.43;;;9.50;99.90;;;;;;5049908;28;20038;-50
2023/04/08 06:26:12;;;;;;;10.15;7.30;;;9.50;99.90;;;;;;5035333;28;20374;-52
2023/04/08 06:28:38;;;;;;;10.60;7.18;;;10.00;99.90;;;;;;5035131;28;20029;-51
2023/04/08 06:31:05;;;;;;;14.93;7.05;;;;;;;;;;5035467;28;20489;-51
2023/04/08 06:33:30;;;;;;;7.20;5.95;;;10.40;99.90;;;;;;5035089;28;20065;-51
2023/04/08 06:36:06;;;;;;;11.40;7.72;;;10.20;99.90;;;;;;5035356;28;20146;-49
2023/04/08 06:38:32;;;;;;;8.65;5.55;;;9.90;99.90;;;;;;5032608;28;20076;-52
2023/04/08 06:41:02;;;;;;;9.77;6.55;;;10.00;99.90;;;;;;5032493;28;20068;-48
2023/04/08 06:43:29;;;;;;;5.95;4.30;;;10.00;99.90;;;;;;5032314;28;20041;-52
2023/04/08 06:45:55;;;;;;;8.77;6.32;;;9.40;99.90;;;;;;5026124;28;20120;-49
2023/04/08 06:48:22;;;;;;;8.48;6.22;;;9.20;99.90;;;;;;5022712;28;20180;-52
2023/04/08 06:50:48;;;;;;;8.05;5.50;;;9.30;99.90;;;;;;5022435;28;20066;-49
2023/04/08 06:53:14;;;;;;;5.85;3.60;;;9.20;99.90;;;;;;5029115;28;20046;-51
2023/04/08 06:55:40;;;;;;;10.90;6.20;;;9.00;99.90;;;;;;5031385;28;20392;-50
2023/04/08 06:58:05;;;;;;;8.27;5.20;;;9.40;99.90;;;;;;5032229;28;20053;-49
2023/04/08 07:00:31;;;;;;;5.30;3.60;;;9.30;99.90;;;;;;5032483;28;20128;-49
2023/04/08 07:02:57;;;;;;;5.20;4.20;;;9.40;99.90;;;;;;5032290;28;20030;-49
2023/04/08 07:05:23;;;;;;;7.18;4.22;;;9.50;99.90;;;;;;5032225;28;20038;-53
2023/04/08 07:07:48;;;;;;;19.13;11.43;;;9.40;99.90;;;;;;5024124;28;20073;-50
2023/04/08 07:10:14;;;;;;;8.15;6.13;;;9.80;99.90;;;;;;5023949;28;20107;-51
2023/04/08 07:12:40;;;;;;;7.47;5.07;;;9.90;99.90;;;;;;5024309;28;20100;-49
2023/04/08 07:15:06;;;;;;;11.82;7.03;;;10.00;99.90;;;;;;5022890;28;20034;-50
2023/04/08 07:17:32;;;;;;;4.50;3.83;;;10.00;99.90;;;;;;5024458;28;20031;-51
2023/04/08 07:19:58;;;;;;;9.50;4.95;;;9.70;99.90;;;;;;5023788;28;20084;-51
2023/04/08 07:22:24;;;;;;;8.35;5.53;;;9.90;99.90;;;;;;5022907;28;20029;-52
2023/04/08 07:24:50;;;;;;;7.53;4.18;;;10.10;99.90;;;;;;5022467;28;20038;-52
2023/04/08 07:27:16;;;;;;;6.55;3.90;;;10.00;99.90;;;;;;5023876;28;20025;-49
2023/04/08 07:29:42;;;;;;;6.15;4.93;;;10.00;99.90;;;;;;5024034;28;20064;-52
2023/04/08 07:32:07;;;;;;;11.88;6.85;;;10.20;99.90;;;;;;5021485;28;20038;-50
2023/04/08 07:34:35;;;;;;;10.95;7.28;;;10.70;99.90;;;;;;5023952;28;20025;-52
2023/04/08 07:37:01;;;;;;;7.35;4.90;;;10.90;99.90;;;;;;5022275;28;20485;-51
2023/04/08 07:39:28;;;;;;;11.30;5.07;;;10.90;99.90;;;;;;5024759;28;20088;-50
2023/04/08 07:41:54;;;;;;;8.27;4.88;;;11.20;99.90;;;;;;5027275;28;20381;-51
2023/04/08 07:44:19;;;;;;;8.50;5.05;;;11.60;99.90;;;;;;5026867;28;20029;-52
2023/04/08 07:46:49;;;;;;;5.07;4.53;;;11.60;99.90;;;;;;5019759;28;20139;-52
2023/04/08 07:49:15;;;;;;;6.55;4.85;;;;;;;;;;5018531;28;20041;-52
2023/04/08 07:51:41;;;;;;;5.88;4.32;;;11.60;99.90;;;;;;5022620;28;20057;-48
2023/04/08 07:54:07;;;;;;;6.93;5.03;;;11.70;99.90;;;;;;5021737;28;20474;-50
2023/04/08 07:56:33;;;;;;;6.35;4.72;;;;;;;;;;5045409;28;20392;-53
2023/04/08 07:58:59;;;;;;;9.95;6.10;;;12.70;99.90;;;;;;5031309;28;20032;-50
2023/04/08 08:01:26;;;;;;;10.57;5.25;;;12.90;99.90;;;;;;5023884;28;20073;-52
2023/04/08 08:03:52;;;;;;;4.03;3.60;;;12.70;99.90;;;;;;5031220;28;20045;-51
2023/04/08 08:06:18;;;;;;;5.95;4.30;;;12.30;99.90;;;;;;5030356;28;20398;-52
2023/04/08 08:08:43;;;;;;;8.50;4.35;;;12.80;99.90;;;;;;4998449;28;20029;-50
2023/04/08 08:11:09;;;;;;;9.63;4.70;;;13.10;99.90;;;;;;5033131;28;20385;-52
2023/04/08 08:13:35;;;;;;;7.78;4.70;;;13.10;99.90;;;;;;5033419;28;20026;-52
2023/04/08 08:16:00;;;;;;;5.60;3.83;;;12.50;99.90;;;;;;5031644;28;20091;-48
2023/04/08 08:18:26;;;;;;;8.77;5.68;;;12.10;99.90;;;;;;5031364;28;20038;-49
2023/04/08 08:20:52;;;;;;;6.88;4.05;;;11.90;99.90;;;;;;5031522;28;20033;-49
2023/04/08 08:23:17;;;;;;;4.28;3.53;;;11.90;99.90;;;;;;5033091;28;20025;-49
2023/04/08 08:25:43;;;;;;;8.73;4.68;;;12.60;99.90;;;;;;5033232;28;20050;-50
2023/04/08 08:28:09;;;;;;;4.68;3.65;;;13.00;99.90;;;;;;5033261;28;20579;-50
2023/04/08 08:30:35;;;;;;;6.57;4.05;;;13.30;99.90;;;;;;5031155;28;20054;-49
2023/04/08 08:33:00;;;;;;;4.82;3.67;;;12.90;99.90;;;;;;5031193;28;20037;-50
2023/04/08 08:35:26;;;;;;;6.18;4.22;;;12.30;99.90;;;;;;5047608;28;20390;-49
2023/04/08 08:37:52;;;;;;;3.97;3.03;;;12.90;99.90;;;;;;5033042;28;20470;-52
2023/04/08 08:40:18;;;;;;;4.07;3.42;;;13.00;99.90;;;;;;5031995;28;20033;-49
2023/04/08 08:42:51;;;;;;;8.35;5.43;;;12.40;99.90;;;;;;5029082;28;20028;-51
2023/04/08 08:45:19;;;;;;;7.35;3.78;;;12.10;99.90;;;;;;5029339;28;20025;-49
2023/04/08 08:47:45;;;;;;;7.32;4.68;;;12.60;99.90;;;;;;5014301;28;20041;-49
2023/04/08 08:50:10;;;;;;;6.95;5.10;;;12.70;99.90;;;;;;5030771;28;20056;-54
2023/04/08 08:52:36;;;;;;;6.32;4.03;;;12.80;99.90;;;;;;5029163;28;20025;-51
2023/04/08 08:55:02;;;;;;;3.75;3.08;;;13.00;99.90;;;;;;5019555;28;20033;-50
2023/04/08 08:57:28;;;;;;;8.18;5.47;;;13.10;99.90;;;;;;5026560;28;20025;-49
2023/04/08 08:59:53;;;;;;;6.65;3.97;;;13.20;99.90;;;;;;5029110;28;20030;-48
2023/04/08 09:02:28;;;;;;;10.63;6.45;;;13.20;99.90;;;;;;5030978;28;20034;-49
2023/04/08 09:05:04;;;;;;;5.65;4.03;;;12.80;99.90;;;;;;5033061;28;20338;-49
2023/04/08 09:07:35;;;;;;;3.70;2.90;;;13.10;99.90;;;;;;5032711;28;20017;-51
2023/04/08 09:10:02;;;;;;;4.13;3.53;;;12.50;99.90;;;;;;5032827;28;20045;-53
2023/04/08 09:12:29;;;;;;;3.95;2.70;;;12.60;99.90;;;;;;5032572;28;20060;-50
2023/04/08 09:15:08;;;;;;;4.78;3.97;;;12.70;99.90;;;;;;5033087;28;20037;-51
2023/04/08 09:17:36;;;;;;;5.22;3.75;;;12.70;99.90;;;;;;5030843;28;20551;-51
2023/04/08 09:20:10;;;;;;;5.30;3.58;;;;;;;;;;5035969;28;20041;-53
2023/04/08 09:22:55;;;;;;;6.28;4.63;;;13.30;99.90;;;;;;5036575;28;20503;-50
2023/04/08 09:25:31;;;;;;;6.18;3.65;;;13.30;99.90;;;;;;5035258;28;20048;-49
2023/04/08 09:27:58;;;;;;;3.70;2.95;;;13.10;99.90;;;;;;5036060;28;20040;-48
2023/04/08 09:30:26;;;;;;;5.72;2.83;;;12.80;99.90;;;;;;5035886;28;20073;-51
2023/04/08 09:32:56;;;;;;;3.85;3.10;;;12.70;99.90;;;;;;5036602;28;20039;-50
2023/04/08 09:35:23;;;;;;;4.65;3.85;;;12.90;99.90;;;;;;5035054;28;20022;-50
2023/04/08 09:37:50;;;;;;;5.82;4.18;;;13.20;99.90;;;;;;5015884;28;20093;-51
2023/04/08 09:40:16;;;;;;;5.85;3.50;;;13.30;99.90;;;;;;5016377;28;20022;-52
2023/04/08 09:42:49;;;;;;;5.78;4.75;;;13.10;99.90;;;;;;5032194;28;20033;-51
2023/04/08 09:45:16;;;;;;;6.00;3.75;;;13.00;99.90;;;;;;5067341;28;20041;-49
2023/04/08 09:48:11;;;;;;;5.63;3.85;;;13.30;99.90;;;;;;5036067;28;20022;-51
2023/04/08 09:50:46;;;;;;;5.40;4.32;;;13.20;99.90;;;;;;5035959;28;20513;-51
2023/04/08 09:53:35;;;;;;;5.15;3.95;;;13.10;99.90;;;;;;5035796;28;20057;-53
2023/04/08 09:56:06;;;;;;;5.57;3.20;;;13.20;99.90;;;;;;5035510;28;20489;-53
2023/04/08 09:58:41;;;;;;;8.48;4.20;;;13.30;99.90;;;;;;5033087;28;20041;-49
2023/04/08 10:01:11;;;;;;;5.25;4.30;;;13.20;99.90;;;;;;5035562;28;20036;-49
2023/04/08 10:03:48;;;;;;;6.25;3.70;;;13.10;99.90;;;;;;5035879;28;20473;-51
2023/04/08 10:06:15;;;;;;;4.30;3.63;;;13.10;99.90;;;;;;5035503;28;20079;-51
2023/04/08 10:08:42;;;;;;;5.28;3.30;;;13.30;99.90;;;;;;5035453;28;20029;-48
2023/04/08 10:11:08;;;;;;;6.25;3.92;;;13.60;99.90;;;;;;5034338;28;20112;-49
2023/04/08 10:13:35;;;;;;;4.50;3.67;;;13.60;99.90;;;;;;5035549;28;20084;-50
2023/04/08 10:16:19;;;;;;;5.15;3.63;;;13.40;99.90;;;;;;5017145;28;20124;-49
2023/04/08 10:18:45;;;;;;;5.05;3.30;;;12.50;99.90;;;;;;5036026;28;20432;-52
2023/04/08 10:21:33;;;;;;;5.78;4.40;;;13.00;99.90;;;;;;5028450;28;20137;-48
2023/04/08 10:24:04;;;;;;;4.88;3.63;;;12.80;99.90;;;;;;5034826;28;20064;-50
2023/04/08 10:26:34;;;;;;;5.00;4.03;;;13.10;99.90;;;;;;5035004;28;20044;-51
2023/04/08 10:29:27;;;;;;;5.00;3.70;;;13.40;99.90;;;;;;5034359;28;20033;-51
2023/04/08 10:31:52;;;;;;;4.75;3.50;;;13.70;99.90;;;;;;5030887;28;20064;-53
2023/04/08 10:34:20;;;;;;;5.07;3.22;;;14.00;99.90;;;;;;5032987;28;20484;-51
2023/04/08 10:36:47;;;;;;;6.25;3.92;;;14.10;99.90;;;;;;5032935;28;20044;-50
2023/04/08 10:39:14;;;;;;;7.80;4.53;;;14.40;99.90;;;;;;5041468;28;20037;-51
2023/04/08 10:41:44;;;;;;;6.30;4.13;;;;;;;;;;5036240;28;20451;-51
2023/04/08 10:44:20;;;;;;;6.22;3.55;;;14.20;99.90;;;;;;5052593;28;20511;-51
2023/04/08 10:46:47;;;;;;;5.10;4.05;;;14.30;99.90;;;;;;5052719;28;20033;-52
2023/04/08 10:49:14;;;;;;;7.07;3.90;;;14.20;99.90;;;;;;5043997;28;20025;-49
2023/04/08 10:51:41;;;;;;;4.93;3.50;;;14.20;99.90;;;;;;5032924;28;20549;-52
2023/04/08 10:54:08;;;;;;;5.57;3.50;;;13.80;99.90;;;;;;5032639;28;20481;-51
2023/04/08 10:56:35;;;;;;;7.18;4.50;;;14.00;99.90;;;;;;5032533;28;20523;-52
2023/04/08 10:59:02;;;;;;;6.50;4.22;;;14.00;99.90;;;;;;5032308;28;20128;-53
2023/04/08 11:01:40;;;;;;;8.70;4.75;;;14.50;99.90;;;;;;5015981;28;20052;-49
2023/04/08 11:04:18;;;;;;;7.65;4.60;;;13.60;99.90;;;;;;5014629;28;20026;-51
2023/04/08 11:06:46;;;;;;;5.95;4.03;;;14.20;99.90;;;;;;5014824;28;20030;-52
2023/04/08 11:09:13;;;;;;;6.07;3.92;;;14.60;99.90;;;;;;5014764;28;20121;-51
2023/04/08 11:11:41;;;;;;;6.97;4.25;;;14.00;99.90;;;;;;5014866;28;20034;-50
2023/04/08 11:14:07;;;;;;;5.28;3.47;;;13.80;99.90;;;;;;5014706;28;20033;-51
2023/04/08 11:16:34;;;;;;;6.72;3.58;;;13.60;99.90;;;;;;5014482;28;20080;-52
2023/04/08 11:19:04;;;;;;;7.60;5.18;;;14.00;99.90;;;;;;5014713;28;20068;-53
2023/04/08 11:21:30;;;;;;;7.78;4.75;;;14.70;99.90;;;;;;5014321;28;20037;-49
2023/04/08 11:23:57;;;;;;;7.50;4.57;;;14.70;99.90;;;;;;5013950;28;20405;-50
2023/04/08 11:26:23;;;;;;;5.07;4.07;;;;;;;;;;5012492;28;20046;-49
2023/04/08 11:28:50;;;;;;;8.68;5.78;;;14.90;99.90;;;;;;5012395;28;20044;-49
2023/04/08 11:31:17;;;;;;;6.72;3.67;;;14.90;99.90;;;;;;5014192;28;20029;-50
2023/04/08 11:33:47;;;;;;;7.50;5.60;;;14.40;99.90;;;;;;5012487;28;20037;-50
2023/04/08 11:36:13;;;;;;;7.85;6.07;;;14.40;99.90;;;;;;5014106;28;20029;-52
2023/04/08 11:38:42;;;;;;;8.80;6.00;;;14.70;99.90;;;;;;5014322;28;20030;-50
2023/04/08 11:41:08;;;;;;;16.92;8.25;;;14.70;99.90;;;;;;5044661;28;20482;-52
2023/04/08 11:43:38;;;;;;;7.35;5.43;;;14.80;99.90;;;;;;5013969;28;20486;-48
2023/04/08 11:46:10;;;;;;;5.72;4.60;;;14.80;99.90;;;;;;5013881;28;20114;-50
2023/04/08 11:48:37;;;;;;;8.60;5.20;;;14.50;99.90;;;;;;5016756;28;20052;-50
2023/04/08 11:51:11;;;;;;;6.45;4.88;;;14.60;99.90;;;;;;5033376;28;20473;-52
2023/04/08 11:53:37;;;;;;;7.07;5.47;;;14.20;99.90;;;;;;5033340;28;20044;-52
2023/04/08 11:56:20;;;;;;;6.35;5.35;;;14.40;99.90;;;;;;5048278;28;20041;-50
2023/04/08 11:58:46;;;;;;;8.32;5.75;;;14.10;99.90;;;;;;5033180;28;20112;-49
2023/04/08 12:01:13;;;;;;;10.02;5.97;;;14.30;99.90;;;;;;5033167;28;20032;-53
2023/04/08 12:03:38;;;;;;;11.52;5.72;;;14.30;99.90;;;;;;5031037;28;20037;-52
2023/04/08 12:06:06;;;;;;;10.23;6.20;;;14.00;99.90;;;;;;5014800;28;20612;-50
2023/04/08 12:08:32;;;;;;;6.75;5.00;;;14.20;99.90;;;;;;5032410;28;20034;-48
2023/04/08 12:10:57;;;;;;;7.10;4.80;;;14.20;99.90;;;;;;5033227;28;20159;-50
2023/04/08 12:13:23;;;;;;;9.65;5.82;;;13.80;99.90;;;;;;5032754;28;20105;-52
2023/04/08 12:15:49;;;;;;;7.78;5.70;;;14.10;99.90;;;;;;5032793;28;20029;-51
2023/04/08 12:18:15;;;;;;;6.57;4.97;;;14.40;99.90;;;;;;5033125;28;20036;-49
2023/04/08 12:20:41;;;;;;;9.35;5.72;;;14.50;99.90;;;;;;5033178;28;20041;-52
2023/04/08 12:23:07;;;;;;;9.68;6.28;;;14.60;99.90;;;;;;5033105;28;20044;-52
2023/04/08 12:25:32;;;;;;;10.43;6.50;;;14.70;99.90;;;;;;5033337;28;20057;-51
2023/04/08 12:27:58;;;;;;;8.25;5.82;;;14.50;99.90;;;;;;5032752;28;20080;-50
2023/04/08 12:30:24;;;;;;;8.90;5.40;;;14.30;99.90;;;;;;5032434;28;20038;-50
2023/04/08 12:32:49;;;;;;;9.45;5.72;;;14.10;99.90;;;;;;5031252;28;20068;-51
2023/04/08 12:35:15;;;;;;;11.75;6.20;;;14.50;99.90;;;;;;5031223;28;20056;-53
2023/04/08 12:37:41;;;;;;;10.40;6.60;;;14.40;99.90;;;;;;5033118;28;20029;-53
2023/04/08 12:40:07;;;;;;;7.72;5.88;;;14.60;99.90;;;;;;5032931;28;20029;-53
2023/04/08 12:42:33;;;;;;;10.68;6.50;;;14.80;99.90;;;;;;5031218;28;20041;-52
2023/04/08 12:44:59;;;;;;;12.48;7.13;;;14.70;99.90;;;;;;5033020;28;20033;-50
2023/04/08 12:47:26;;;;;;;11.23;7.43;;;14.80;99.90;;;;;;5029742;28;20363;-52
2023/04/08 12:49:52;;;;;;;11.02;6.55;;;14.90;99.90;;;;;;5021694;28;20365;-49
2023/04/08 12:52:18;;;;;;;9.15;5.82;;;15.20;99.90;;;;;;5022302;28;20176;-52
2023/04/08 12:54:45;;;;;;;8.98;6.40;;;15.20;99.90;;;;;;5030982;28;20131;-49
2023/04/08 12:57:11;;;;;;;9.60;6.07;;;15.20;99.90;;;;;;5025263;28;20413;-46
2023/04/08 12:59:38;;;;;;;7.78;5.45;;;15.10;99.90;;;;;;5027444;28;20022;-53